Colorida (sul)

Imagem satélite Climatempo

GOES 13 Colorida (Sul)

Imagem satélite Climatempo

Radar (Lontras/SC)

Radar Ciram Epagri

Raios (Sul)

Radios Simepar

Pressão e ventos(nós)

Pressao e Ventos (Climatempo)

Previsão para Florianópolis

Sexta-feira

Parcialmente nublado. Mínima 22°C.


Sexta à noite

Parcialmente nublado. Mínima 22°C. Ventos NNE e variável.


Sábado

Parcialmente Nublado

28º / 23º

Domingo

Parcialmente Nublado

30º / 23º

Segunda-feira

Muito Nublado

27º / 22º

Aeroporto Florianópolis/SC (FLN) - SBFL


Situação: Aberto para pouso e decolagem

Atualização: 0115 UTC 16 Dec 2017

Vento: 02KT (3,9 Km/h) - Norte (N) (VRBº)

Visibilidade: Maior que 10.000 metros

Nuvens esparsas a 2000 ft

Temperatura: 23ºC / 21ºC

Pressão: 1013 hPa

Data at: 0115 UTC 16 Dec 2017SBFL 160100Z VRB02KT 9999 SCT020 23/21 Q1013